createdAt,value
2023-01-22T00:01:12.711Z,3.20
2023-01-22T00:03:44.029Z,3.20
2023-01-22T00:06:13.327Z,3.20
2023-01-22T00:08:40.204Z,3.20
2023-01-22T00:11:09.695Z,3.20
2023-01-22T00:13:38.858Z,3.20
2023-01-22T00:16:06.677Z,3.20
2023-01-22T00:18:33.967Z,3.20
2023-01-22T00:21:00.903Z,3.20
2023-01-22T00:23:30.118Z,3.20
2023-01-22T00:26:17.435Z,3.20
2023-01-22T00:28:45.588Z,3.20
2023-01-22T00:31:16.330Z,3.20
2023-01-22T00:33:44.252Z,3.20
2023-01-22T00:36:21.466Z,3.20
2023-01-22T00:38:49.742Z,3.10
2023-01-22T00:41:17.757Z,3.10
2023-01-22T00:43:48.499Z,3.20
2023-01-22T00:46:17.230Z,3.20
2023-01-22T00:48:49.586Z,3.20
2023-01-22T00:51:16.832Z,3.20
2023-01-22T00:53:44.172Z,3.10
2023-01-22T00:56:12.376Z,3.10
2023-01-22T00:58:42.938Z,3.10
2023-01-22T01:01:12.298Z,3.10
2023-01-22T01:03:39.215Z,3.10
2023-01-22T01:06:11.673Z,3.10
2023-01-22T01:08:40.264Z,3.10
2023-01-22T01:11:13.277Z,3.10
2023-01-22T01:13:43.084Z,3.20
2023-01-22T01:16:30.273Z,3.20
2023-01-22T01:19:10.016Z,3.20
2023-01-22T01:21:41.579Z,3.10
2023-01-22T01:24:10.556Z,3.20
2023-01-22T01:26:38.875Z,3.20
2023-01-22T01:29:10.571Z,3.20
2023-01-22T01:31:38.446Z,3.20
2023-01-22T01:34:05.454Z,3.20
2023-01-22T01:36:47.585Z,3.20
2023-01-22T01:39:15.896Z,3.20
2023-01-22T01:41:42.886Z,3.20
2023-01-22T01:44:19.396Z,3.20
2023-01-22T01:46:48.360Z,3.10
2023-01-22T01:49:46.217Z,3.20
2023-01-22T01:52:14.694Z,3.20
2023-01-22T01:54:45.185Z,3.20
2023-01-22T01:57:18.535Z,3.20
2023-01-22T01:59:50.832Z,3.20
2023-01-22T02:02:19.763Z,3.20
2023-01-22T02:04:49.726Z,3.20
2023-01-22T02:07:19.351Z,3.20
2023-01-22T02:09:46.883Z,3.20
2023-01-22T02:12:13.789Z,3.20
2023-01-22T02:14:44.464Z,3.20
2023-01-22T02:17:15.170Z,3.20
2023-01-22T02:19:43.891Z,3.20
2023-01-22T02:22:27.418Z,3.20
2023-01-22T02:24:56.880Z,3.20
2023-01-22T02:27:24.416Z,3.20
2023-01-22T02:29:54.047Z,3.20
2023-01-22T02:32:21.838Z,3.20
2023-01-22T02:34:51.418Z,3.20
2023-01-22T02:37:18.288Z,3.20
2023-01-22T02:39:45.379Z,3.20
2023-01-22T02:42:12.570Z,3.20
2023-01-22T02:44:41.397Z,3.20
2023-01-22T02:47:08.279Z,3.20
2023-01-22T02:49:35.194Z,3.20
2023-01-22T02:52:04.235Z,3.20
2023-01-22T02:54:31.533Z,3.20
2023-01-22T02:57:01.017Z,3.20
2023-01-22T02:59:28.899Z,3.20
2023-01-22T03:01:58.153Z,3.20
2023-01-22T03:04:27.278Z,3.20
2023-01-22T03:06:54.288Z,3.20
2023-01-22T03:09:22.892Z,3.10
2023-01-22T03:11:50.675Z,3.10
2023-01-22T03:14:43.375Z,3.10
2023-01-22T03:17:29.038Z,3.10
2023-01-22T03:20:14.516Z,3.20
2023-01-22T03:22:41.466Z,3.10
2023-01-22T03:25:08.472Z,3.10
2023-01-22T03:27:58.011Z,3.10
2023-01-22T03:30:25.040Z,3.20
2023-01-22T03:32:56.471Z,3.20
2023-01-22T03:35:25.984Z,3.10
2023-01-22T03:38:11.174Z,3.10
2023-01-22T03:40:38.039Z,3.20
2023-01-22T03:43:05.134Z,3.20
2023-01-22T03:45:34.056Z,3.20
2023-01-22T03:48:02.266Z,3.20
2023-01-22T03:50:35.324Z,3.20
2023-01-22T03:53:04.011Z,3.20
2023-01-22T03:55:33.691Z,3.10
2023-01-22T03:58:02.718Z,3.20
2023-01-22T04:00:29.627Z,3.10
2023-01-22T04:02:59.573Z,3.20
2023-01-22T04:05:32.317Z,3.20
2023-01-22T04:07:59.562Z,3.20
2023-01-22T04:10:29.477Z,3.20
2023-01-22T04:12:56.512Z,3.10
2023-01-22T04:15:26.080Z,3.10
2023-01-22T04:17:54.838Z,3.10
2023-01-22T04:20:40.695Z,3.10
2023-01-22T04:23:29.504Z,3.10
2023-01-22T04:25:56.912Z,3.10
2023-01-22T04:28:24.024Z,3.10
2023-01-22T04:30:55.423Z,3.10
2023-01-22T04:33:37.786Z,3.10
2023-01-22T04:36:09.562Z,3.20
2023-01-22T04:38:37.091Z,3.10
2023-01-22T04:41:04.204Z,3.10
2023-01-22T04:43:31.095Z,3.10
2023-01-22T04:45:58.096Z,3.10
2023-01-22T04:48:29.671Z,3.10
2023-01-22T04:50:56.663Z,3.10
2023-01-22T04:53:29.437Z,3.10
2023-01-22T04:55:58.574Z,3.10
2023-01-22T04:58:28.705Z,3.10
2023-01-22T05:01:01.127Z,3.10
2023-01-22T05:03:28.950Z,3.10
2023-01-22T05:05:56.641Z,3.10
2023-01-22T05:08:23.487Z,3.00
2023-01-22T05:10:51.227Z,3.10
2023-01-22T05:13:24.229Z,3.10
2023-01-22T05:15:51.258Z,3.10
2023-01-22T05:18:18.169Z,3.00
2023-01-22T05:20:51.577Z,3.00
2023-01-22T05:23:20.211Z,3.10
2023-01-22T05:25:49.213Z,3.10
2023-01-22T05:28:21.985Z,3.10
2023-01-22T05:31:19.469Z,3.10
2023-01-22T05:34:00.981Z,3.10
2023-01-22T05:36:29.383Z,3.10
2023-01-22T05:39:02.540Z,3.10
2023-01-22T05:41:30.009Z,3.00
2023-01-22T05:43:57.216Z,3.00
2023-01-22T05:46:28.214Z,3.00
2023-01-22T05:49:24.315Z,3.00
2023-01-22T05:51:54.945Z,3.00
2023-01-22T05:54:22.398Z,3.00
2023-01-22T05:56:50.381Z,3.00
2023-01-22T05:59:20.149Z,3.00
2023-01-22T06:01:54.266Z,3.00
2023-01-22T06:04:22.340Z,3.00
2023-01-22T06:06:49.539Z,3.00
2023-01-22T06:09:19.226Z,3.10
2023-01-22T06:11:46.277Z,3.00
2023-01-22T06:14:14.186Z,3.10
2023-01-22T06:16:43.617Z,3.10
2023-01-22T06:19:29.255Z,3.10
2023-01-22T06:21:56.423Z,3.10
2023-01-22T06:24:34.064Z,3.10
2023-01-22T06:27:04.048Z,3.10
2023-01-22T06:29:40.199Z,3.10
2023-01-22T06:32:09.785Z,3.10
2023-01-22T06:34:37.733Z,3.10
2023-01-22T06:37:05.493Z,3.10
2023-01-22T06:39:38.463Z,3.10
2023-01-22T06:42:20.471Z,3.10
2023-01-22T06:44:47.889Z,3.10
2023-01-22T06:47:15.139Z,3.10
2023-01-22T06:49:42.057Z,3.10
2023-01-22T06:52:08.900Z,3.10
2023-01-22T06:54:35.851Z,3.10
2023-01-22T06:57:02.814Z,3.10
2023-01-22T06:59:31.251Z,3.10
2023-01-22T07:01:58.101Z,3.10
2023-01-22T07:04:25.000Z,3.10
2023-01-22T07:06:51.855Z,3.10
2023-01-22T07:09:18.690Z,3.10
2023-01-22T07:11:45.520Z,3.10
2023-01-22T07:14:12.389Z,3.10
2023-01-22T07:16:39.204Z,3.10
2023-01-22T07:19:06.285Z,3.10
2023-01-22T07:21:33.134Z,3.10
2023-01-22T07:23:59.956Z,3.10
2023-01-22T07:26:26.884Z,3.10
2023-01-22T07:28:56.073Z,3.10
2023-01-22T07:31:25.145Z,3.10
2023-01-22T07:33:52.047Z,3.10
2023-01-22T07:36:21.173Z,3.10
2023-01-22T07:38:52.801Z,3.20
2023-01-22T07:41:25.890Z,3.10
2023-01-22T07:43:57.575Z,3.10
2023-01-22T07:46:27.723Z,3.10
2023-01-22T07:48:57.319Z,3.10
2023-01-22T07:51:26.313Z,3.10
2023-01-22T07:53:53.213Z,3.10
2023-01-22T07:56:20.150Z,3.10
2023-01-22T07:58:49.380Z,3.10
2023-01-22T08:01:17.134Z,3.10
2023-01-22T08:03:48.744Z,3.10
2023-01-22T08:06:21.654Z,3.20
2023-01-22T08:08:49.009Z,3.20
2023-01-22T08:11:16.062Z,3.20
2023-01-22T08:13:43.006Z,3.20
2023-01-22T08:16:09.903Z,3.20
2023-01-22T08:18:37.052Z,3.20
2023-01-22T08:21:04.253Z,3.20
2023-01-22T08:23:31.141Z,3.20
2023-01-22T08:26:03.940Z,3.30
2023-01-22T08:28:31.690Z,3.30
2023-01-22T08:31:00.732Z,3.20
2023-01-22T08:33:29.039Z,3.30
2023-01-22T08:35:55.946Z,3.30
2023-01-22T08:38:22.999Z,3.20
2023-01-22T08:40:53.862Z,3.30
2023-01-22T08:43:20.710Z,3.20
2023-01-22T08:45:50.996Z,3.20
2023-01-22T08:48:22.807Z,3.20
2023-01-22T08:50:49.708Z,3.20
2023-01-22T08:53:16.517Z,3.30
2023-01-22T08:55:51.148Z,3.30
2023-01-22T08:58:20.340Z,3.40
2023-01-22T09:00:47.541Z,3.30
2023-01-22T09:03:14.409Z,3.40
2023-01-22T09:05:41.264Z,3.40
2023-01-22T09:08:10.920Z,3.40
2023-01-22T09:10:37.778Z,3.40
2023-01-22T09:13:04.653Z,3.40
2023-01-22T09:15:34.131Z,3.40
2023-01-22T09:18:01.040Z,3.40
2023-01-22T09:20:27.933Z,3.40
2023-01-22T09:22:54.805Z,3.40
2023-01-22T09:25:24.033Z,3.50
2023-01-22T09:27:56.356Z,3.40
2023-01-22T09:30:26.267Z,3.40
2023-01-22T09:32:55.612Z,3.30
2023-01-22T09:35:22.920Z,3.30
2023-01-22T09:37:49.804Z,3.30
2023-01-22T09:40:39.211Z,3.40
2023-01-22T09:43:23.734Z,3.40
2023-01-22T09:45:55.444Z,3.30
2023-01-22T09:48:30.848Z,3.30
2023-01-22T09:50:57.750Z,3.40
2023-01-22T09:53:24.671Z,3.40
2023-01-22T09:55:55.746Z,3.40
2023-01-22T09:58:24.472Z,3.30
2023-01-22T10:01:04.487Z,3.30
2023-01-22T10:03:51.942Z,3.40
2023-01-22T10:06:22.878Z,3.40
2023-01-22T10:08:49.615Z,3.40
2023-01-22T10:11:18.962Z,3.40
2023-01-22T10:13:48.472Z,3.50
2023-01-22T10:16:15.369Z,3.40
2023-01-22T10:18:47.895Z,3.40
2023-01-22T10:21:32.829Z,3.50
2023-01-22T10:24:00.296Z,3.50
2023-01-22T10:26:36.802Z,3.50
2023-01-22T10:29:10.257Z,3.50
2023-01-22T10:31:45.488Z,3.60
2023-01-22T10:34:31.262Z,3.50
2023-01-22T10:37:04.100Z,3.50
2023-01-22T10:39:53.208Z,3.60
2023-01-22T10:42:25.364Z,3.60
2023-01-22T10:45:19.132Z,3.60
2023-01-22T10:47:50.405Z,3.50
2023-01-22T10:50:20.280Z,3.50
2023-01-22T10:52:55.223Z,3.60
2023-01-22T10:55:23.731Z,3.60
2023-01-22T10:58:03.911Z,3.70
2023-01-22T11:00:50.558Z,3.70
2023-01-22T11:03:30.089Z,3.80
2023-01-22T11:06:05.013Z,3.80
2023-01-22T11:08:43.248Z,3.80
2023-01-22T11:11:13.763Z,3.80
2023-01-22T11:14:04.353Z,3.80
2023-01-22T11:16:35.015Z,3.70
2023-01-22T11:19:18.149Z,3.70
2023-01-22T11:21:51.511Z,3.60
2023-01-22T11:24:30.200Z,3.70
2023-01-22T11:27:12.925Z,3.70
2023-01-22T11:30:10.521Z,3.70
2023-01-22T11:32:59.289Z,3.70
2023-01-22T11:35:47.580Z,3.70
2023-01-22T11:38:56.279Z,3.60
2023-01-22T11:41:55.487Z,3.70
2023-01-22T11:44:50.945Z,3.70
2023-01-22T11:47:36.304Z,3.80
2023-01-22T11:50:14.747Z,3.90
2023-01-22T11:53:12.275Z,3.90
2023-01-22T11:55:45.235Z,3.90
2023-01-22T11:58:15.061Z,3.90
2023-01-22T12:00:51.943Z,3.90
2023-01-22T12:03:56.692Z,3.90
2023-01-22T12:06:31.862Z,3.90
2023-01-22T12:09:12.350Z,3.90
2023-01-22T12:11:59.804Z,3.90
2023-01-22T12:14:43.215Z,3.90
2023-01-22T12:17:34.421Z,3.90
2023-01-22T12:20:15.208Z,3.90
2023-01-22T12:22:55.949Z,3.90
2023-01-22T12:25:30.415Z,3.90
2023-01-22T12:28:19.763Z,3.80
2023-01-22T12:31:09.837Z,3.80
2023-01-22T12:33:42.064Z,3.80
2023-01-22T12:36:13.762Z,3.80
2023-01-22T12:38:51.687Z,3.80
2023-01-22T12:42:01.531Z,3.90
2023-01-22T12:44:52.943Z,3.90
2023-01-22T12:47:19.802Z,3.90
2023-01-22T12:49:49.132Z,3.90
2023-01-22T12:52:42.476Z,3.90
2023-01-22T12:55:31.801Z,3.80
2023-01-22T12:57:59.082Z,3.80
2023-01-22T13:00:36.406Z,3.80
2023-01-22T13:03:30.904Z,3.80
2023-01-22T13:05:59.811Z,3.90
2023-01-22T13:08:38.926Z,3.90
2023-01-22T13:11:12.770Z,3.90
2023-01-22T13:13:48.350Z,3.90
2023-01-22T13:16:25.533Z,3.90
2023-01-22T13:19:00.759Z,3.90
2023-01-22T13:21:35.113Z,3.90
2023-01-22T13:24:12.954Z,3.90
2023-01-22T13:26:41.388Z,3.90
2023-01-22T13:29:26.738Z,3.90
2023-01-22T13:31:59.825Z,3.80
2023-01-22T13:34:27.843Z,3.80
2023-01-22T13:36:57.828Z,3.80
2023-01-22T13:39:24.660Z,3.80
2023-01-22T13:41:56.252Z,3.70
2023-01-22T13:44:39.115Z,3.70
2023-01-22T13:47:08.725Z,3.80
2023-01-22T13:49:42.775Z,3.80
2023-01-22T13:52:15.278Z,3.80
2023-01-22T13:54:46.857Z,3.70
2023-01-22T13:57:19.305Z,3.70
2023-01-22T14:00:01.245Z,3.70
2023-01-22T14:02:30.473Z,3.70
2023-01-22T14:04:58.007Z,3.70
2023-01-22T14:07:34.863Z,3.70
2023-01-22T14:10:16.368Z,3.70
2023-01-22T14:12:43.589Z,3.70
2023-01-22T14:15:21.740Z,3.70
2023-01-22T14:17:51.098Z,3.70
2023-01-22T14:20:18.770Z,3.70
2023-01-22T14:22:45.829Z,3.70
2023-01-22T14:25:12.741Z,3.70
2023-01-22T14:27:43.694Z,3.70
2023-01-22T14:30:14.668Z,3.70
2023-01-22T14:32:42.259Z,3.70
2023-01-22T14:35:18.469Z,3.60
2023-01-22T14:37:46.131Z,3.60
2023-01-22T14:40:17.529Z,3.60
2023-01-22T14:42:47.702Z,3.60
2023-01-22T14:45:20.813Z,3.60
2023-01-22T14:47:52.582Z,3.60
2023-01-22T14:50:22.452Z,3.60
2023-01-22T14:52:53.211Z,3.60
2023-01-22T14:55:20.889Z,3.60
2023-01-22T14:57:48.023Z,3.60
2023-01-22T15:00:17.612Z,3.60
2023-01-22T15:02:44.803Z,3.60
2023-01-22T15:05:16.220Z,3.60
2023-01-22T15:07:43.497Z,3.60
2023-01-22T15:10:11.261Z,3.50
2023-01-22T15:12:40.528Z,3.60
2023-01-22T15:15:08.910Z,3.50
2023-01-22T15:17:38.279Z,3.50
2023-01-22T15:20:05.884Z,3.50
2023-01-22T15:22:32.811Z,3.60
2023-01-22T15:25:01.921Z,3.50
2023-01-22T15:27:31.324Z,3.50
2023-01-22T15:29:58.185Z,3.50
2023-01-22T15:32:29.603Z,3.50
2023-01-22T15:34:56.683Z,3.50
2023-01-22T15:37:24.812Z,3.50
2023-01-22T15:39:52.454Z,3.50
2023-01-22T15:42:19.350Z,3.50
2023-01-22T15:44:48.751Z,3.50
2023-01-22T15:47:18.646Z,3.60
2023-01-22T15:49:45.490Z,3.50
2023-01-22T15:52:14.732Z,3.50
2023-01-22T15:54:43.953Z,3.50
2023-01-22T15:57:10.878Z,3.50
2023-01-22T15:59:38.924Z,3.50
2023-01-22T16:02:10.580Z,3.50
2023-01-22T16:04:37.732Z,3.50
2023-01-22T16:07:04.681Z,3.50
2023-01-22T16:09:31.622Z,3.50
2023-01-22T16:11:58.795Z,3.50
2023-01-22T16:14:29.134Z,3.50
2023-01-22T16:16:56.337Z,3.50
2023-01-22T16:19:25.753Z,3.50
2023-01-22T16:21:55.651Z,3.40
2023-01-22T16:24:22.588Z,3.40
2023-01-22T16:26:51.904Z,3.40
2023-01-22T16:29:18.917Z,3.40
2023-01-22T16:31:46.045Z,3.40
2023-01-22T16:34:18.385Z,3.40
2023-01-22T16:36:49.163Z,3.40
2023-01-22T16:39:21.631Z,3.50
2023-01-22T16:41:52.361Z,3.40
2023-01-22T16:44:25.997Z,3.40
2023-01-22T16:46:54.359Z,3.40
2023-01-22T16:49:29.400Z,3.30
2023-01-22T16:52:01.561Z,3.30
2023-01-22T16:54:38.152Z,3.30
2023-01-22T16:57:08.754Z,3.40
2023-01-22T16:59:43.140Z,3.40
2023-01-22T17:02:15.405Z,3.40
2023-01-22T17:04:42.298Z,3.40
2023-01-22T17:07:13.555Z,3.40
2023-01-22T17:09:47.934Z,3.40
2023-01-22T17:12:14.944Z,3.40
2023-01-22T17:14:46.152Z,3.40
2023-01-22T17:17:13.318Z,3.40
2023-01-22T17:19:40.225Z,3.40
2023-01-22T17:22:07.114Z,3.50
2023-01-22T17:24:34.097Z,3.50
2023-01-22T17:27:06.412Z,3.40
2023-01-22T17:29:36.353Z,3.40
2023-01-22T17:32:04.439Z,3.50
2023-01-22T17:34:31.468Z,3.50
2023-01-22T17:36:59.886Z,3.50
2023-01-22T17:39:27.704Z,3.50
2023-01-22T17:41:54.612Z,3.40
2023-01-22T17:44:21.843Z,3.40
2023-01-22T17:46:49.290Z,3.40
2023-01-22T17:49:16.848Z,3.40
2023-01-22T17:51:43.917Z,3.40
2023-01-22T17:54:10.814Z,3.40
2023-01-22T17:56:45.530Z,3.30
2023-01-22T17:59:15.320Z,3.30
2023-01-22T18:01:45.478Z,3.30
2023-01-22T18:04:13.896Z,3.30
2023-01-22T18:06:44.151Z,3.30
2023-01-22T18:09:12.052Z,3.30
2023-01-22T18:11:39.824Z,3.40
2023-01-22T18:14:10.563Z,3.30
2023-01-22T18:16:39.383Z,3.30
2023-01-22T18:19:08.504Z,3.40
2023-01-22T18:21:37.125Z,3.40
2023-01-22T18:24:05.825Z,3.40
2023-01-22T18:26:33.353Z,3.40
2023-01-22T18:29:03.700Z,3.40
2023-01-22T18:31:31.046Z,3.40
2023-01-22T18:34:02.242Z,3.40
2023-01-22T18:36:33.926Z,3.40
2023-01-22T18:39:14.849Z,3.30
2023-01-22T18:41:45.881Z,3.40
2023-01-22T18:44:15.000Z,3.40
2023-01-22T18:46:45.301Z,3.30
2023-01-22T18:49:16.265Z,3.40
2023-01-22T18:51:44.955Z,3.40
2023-01-22T18:54:12.539Z,3.40
2023-01-22T18:56:39.602Z,3.40
2023-01-22T18:59:07.202Z,3.50
2023-01-22T19:01:37.075Z,3.50
2023-01-22T19:04:07.091Z,3.50
2023-01-22T19:06:37.809Z,3.50
2023-01-22T19:09:13.988Z,3.50
2023-01-22T19:11:47.086Z,3.50
2023-01-22T19:14:17.633Z,3.50
2023-01-22T19:16:48.098Z,3.50
2023-01-22T19:19:16.014Z,3.50
2023-01-22T19:21:46.904Z,3.40
2023-01-22T19:24:19.533Z,3.40
2023-01-22T19:26:47.058Z,3.40
2023-01-22T19:29:17.533Z,3.40
2023-01-22T19:32:17.808Z,3.50
2023-01-22T19:34:44.809Z,3.50
2023-01-22T19:37:11.925Z,3.50
2023-01-22T19:39:41.577Z,3.50
2023-01-22T19:42:08.742Z,3.50
2023-01-22T19:44:39.784Z,3.40
2023-01-22T19:47:06.781Z,3.50
2023-01-22T19:49:33.816Z,3.40
2023-01-22T19:52:03.226Z,3.50
2023-01-22T19:54:32.231Z,3.50
2023-01-22T19:56:59.353Z,3.50
2023-01-22T19:59:28.323Z,3.50
2023-01-22T20:01:55.348Z,3.50
2023-01-22T20:04:25.372Z,3.40
2023-01-22T20:06:57.878Z,3.40
2023-01-22T20:09:25.299Z,3.40
2023-01-22T20:11:54.252Z,3.50
2023-01-22T20:14:23.228Z,3.50
2023-01-22T20:16:54.405Z,3.40
2023-01-22T20:19:21.365Z,3.50
2023-01-22T20:21:51.390Z,3.40
2023-01-22T20:24:18.715Z,3.40
2023-01-22T20:26:46.021Z,3.40
2023-01-22T20:29:14.973Z,3.40
2023-01-22T20:31:42.186Z,3.30
2023-01-22T20:34:09.355Z,3.30
2023-01-22T20:36:38.110Z,3.40
2023-01-22T20:39:05.195Z,3.40
2023-01-22T20:41:34.311Z,3.40
2023-01-22T20:44:01.623Z,3.40
2023-01-22T20:46:28.638Z,3.40
2023-01-22T20:48:58.682Z,3.40
2023-01-22T20:51:28.839Z,3.30
2023-01-22T20:53:57.208Z,3.20
2023-01-22T20:56:31.427Z,3.30
2023-01-22T20:59:08.110Z,3.30
2023-01-22T21:01:37.712Z,3.30
2023-01-22T21:04:07.157Z,3.20
2023-01-22T21:06:36.736Z,3.20
2023-01-22T21:09:05.384Z,3.20
2023-01-22T21:11:34.389Z,3.20
2023-01-22T21:14:04.133Z,3.20
2023-01-22T21:16:36.518Z,3.20
2023-01-22T21:19:07.124Z,3.20
2023-01-22T21:21:35.401Z,3.20
2023-01-22T21:24:04.771Z,3.20
2023-01-22T21:26:32.930Z,3.20
2023-01-22T21:29:03.245Z,3.20
2023-01-22T21:31:31.241Z,3.20
2023-01-22T21:34:03.050Z,3.20
2023-01-22T21:36:41.592Z,3.20
2023-01-22T21:39:12.899Z,3.20
2023-01-22T21:41:41.613Z,3.10
2023-01-22T21:44:32.653Z,3.10
2023-01-22T21:47:02.393Z,3.10
2023-01-22T21:49:30.196Z,3.20
2023-01-22T21:52:04.176Z,3.20
2023-01-22T21:54:34.152Z,3.20
2023-01-22T21:57:03.566Z,3.30
2023-01-22T21:59:30.568Z,3.30
2023-01-22T22:01:59.513Z,3.30
2023-01-22T22:04:31.317Z,3.30
2023-01-22T22:06:58.289Z,3.30
2023-01-22T22:09:27.266Z,3.20
2023-01-22T22:11:59.047Z,3.30
2023-01-22T22:14:26.473Z,3.30
2023-01-22T22:16:54.063Z,3.40
2023-01-22T22:19:22.730Z,3.40
2023-01-22T22:21:51.022Z,3.40
2023-01-22T22:24:19.247Z,3.50
2023-01-22T22:26:46.143Z,3.40
2023-01-22T22:29:15.351Z,3.40
2023-01-22T22:31:42.278Z,3.40
2023-01-22T22:34:09.352Z,3.40
2023-01-22T22:36:40.743Z,3.40
2023-01-22T22:39:10.474Z,3.40
2023-01-22T22:41:38.548Z,3.30
2023-01-22T22:44:06.583Z,3.30
2023-01-22T22:46:36.538Z,3.30
2023-01-22T22:49:04.302Z,3.20
2023-01-22T22:51:39.829Z,3.20
2023-01-22T22:54:17.200Z,3.30
2023-01-22T22:56:48.602Z,3.30
2023-01-22T22:59:21.223Z,3.30
2023-01-22T23:01:49.376Z,3.40
2023-01-22T23:04:16.467Z,3.40
2023-01-22T23:06:45.172Z,3.40
2023-01-22T23:09:15.359Z,3.40
2023-01-22T23:11:44.734Z,3.40
2023-01-22T23:14:11.891Z,3.40
2023-01-22T23:16:44.504Z,3.30
2023-01-22T23:19:26.088Z,3.30
2023-01-22T23:21:58.759Z,3.40
2023-01-22T23:24:26.320Z,3.40
2023-01-22T23:26:53.221Z,3.40
2023-01-22T23:29:23.990Z,3.30
2023-01-22T23:31:53.734Z,3.30
2023-01-22T23:34:21.901Z,3.40
2023-01-22T23:36:51.658Z,3.40
2023-01-22T23:39:21.982Z,3.40
2023-01-22T23:41:49.080Z,3.30
2023-01-22T23:44:18.007Z,3.40
2023-01-22T23:46:45.639Z,3.30
2023-01-22T23:49:15.007Z,3.30
2023-01-22T23:51:46.485Z,3.30
2023-01-22T23:54:13.432Z,3.20
2023-01-22T23:56:42.773Z,3.20
2023-01-22T23:59:12.850Z,3.30
